sensor_id;sensor_type;location;lat;lon;timestamp;temperature;humidity
20833;DHT22;56075;51.264;7.150;2023-04-06T04:19:46;1.60;99.90
20833;DHT22;56075;51.264;7.150;2023-04-06T06:12:00;2.30;99.90
20833;DHT22;56075;51.264;7.150;2023-04-06T07:58:44;6.30;99.90
20833;DHT22;56075;51.264;7.150;2023-04-06T08:56:56;9.40;97.30
20833;DHT22;56075;51.264;7.150;2023-04-06T08:59:27;9.70;97.20
20833;DHT22;56075;51.264;7.150;2023-04-06T09:02:03;9.80;97.00
20833;DHT22;56075;51.264;7.150;2023-04-06T09:09:39;10.10;95.40
20833;DHT22;56075;51.264;7.150;2023-04-06T09:15:00;10.30;95.90
20833;DHT22;56075;51.264;7.150;2023-04-06T09:17:32;10.30;95.90
20833;DHT22;56075;51.264;7.150;2023-04-06T09:20:04;10.30;94.70
20833;DHT22;56075;51.264;7.150;2023-04-06T09:22:37;10.30;94.50
20833;DHT22;56075;51.264;7.150;2023-04-06T09:27:41;10.40;94.10
20833;DHT22;56075;51.264;7.150;2023-04-06T09:30:14;10.60;94.00
20833;DHT22;56075;51.264;7.150;2023-04-06T09:32:49;10.70;93.80
20833;DHT22;56075;51.264;7.150;2023-04-06T09:35:21;10.70;93.00
20833;DHT22;56075;51.264;7.150;2023-04-06T09:37:53;10.80;93.60
20833;DHT22;56075;51.264;7.150;2023-04-06T09:40:24;11.30;93.50
20833;DHT22;56075;51.264;7.150;2023-04-06T09:42:55;10.60;93.10
20833;DHT22;56075;51.264;7.150;2023-04-06T09:45:29;11.10;93.10
20833;DHT22;56075;51.264;7.150;2023-04-06T09:48:03;11.30;92.90
20833;DHT22;56075;51.264;7.150;2023-04-06T09:50:34;11.30;92.60
20833;DHT22;56075;51.264;7.150;2023-04-06T09:53:06;11.40;92.40
20833;DHT22;56075;51.264;7.150;2023-04-06T09:55:43;12.40;92.60
20833;DHT22;56075;51.264;7.150;2023-04-06T09:58:16;11.60;92.00
20833;DHT22;56075;51.264;7.150;2023-04-06T10:01:05;11.60;91.90
20833;DHT22;56075;51.264;7.150;2023-04-06T10:03:52;11.80;91.70
20833;DHT22;56075;51.264;7.150;2023-04-06T10:06:28;11.80;91.60
20833;DHT22;56075;51.264;7.150;2023-04-06T10:09:04;11.70;91.60
20833;DHT22;56075;51.264;7.150;2023-04-06T10:11:36;11.60;91.50
20833;DHT22;56075;51.264;7.150;2023-04-06T10:14:07;12.30;91.60
20833;DHT22;56075;51.264;7.150;2023-04-06T10:16:39;11.90;91.30
20833;DHT22;56075;51.264;7.150;2023-04-06T10:19:18;11.90;91.10
20833;DHT22;56075;51.264;7.150;2023-04-06T10:21:54;12.10;91.00
20833;DHT22;56075;51.264;7.150;2023-04-06T10:24:28;12.20;91.00
20833;DHT22;56075;51.264;7.150;2023-04-06T10:27:03;12.10;90.80
20833;DHT22;56075;51.264;7.150;2023-04-06T10:29:47;12.40;90.80
20833;DHT22;56075;51.264;7.150;2023-04-06T10:32:34;12.40;90.50
20833;DHT22;56075;51.264;7.150;2023-04-06T10:35:11;12.50;90.50
20833;DHT22;56075;51.264;7.150;2023-04-06T10:38:01;12.50;90.50
20833;DHT22;56075;51.264;7.150;2023-04-06T10:40:36;12.50;90.40
20833;DHT22;56075;51.264;7.150;2023-04-06T10:43:21;12.50;90.50
20833;DHT22;56075;51.264;7.150;2023-04-06T10:45:57;12.50;89.90
20833;DHT22;56075;51.264;7.150;2023-04-06T10:48:43;12.40;90.30
20833;DHT22;56075;51.264;7.150;2023-04-06T10:51:16;12.40;90.30
20833;DHT22;56075;51.264;7.150;2023-04-06T10:53:48;12.40;90.20
20833;DHT22;56075;51.264;7.150;2023-04-06T10:56:22;12.50;90.20
20833;DHT22;56075;51.264;7.150;2023-04-06T10:58:54;12.60;90.10
20833;DHT22;56075;51.264;7.150;2023-04-06T11:01:29;12.70;90.10
20833;DHT22;56075;51.264;7.150;2023-04-06T11:04:00;12.60;88.70
20833;DHT22;56075;51.264;7.150;2023-04-06T11:06:31;12.60;88.60
20833;DHT22;56075;51.264;7.150;2023-04-06T11:09:04;12.50;88.50
20833;DHT22;56075;51.264;7.150;2023-04-06T11:11:39;12.60;88.60
20833;DHT22;56075;51.264;7.150;2023-04-06T11:14:10;12.70;88.80
20833;DHT22;56075;51.264;7.150;2023-04-06T11:16:42;12.80;88.50
20833;DHT22;56075;51.264;7.150;2023-04-06T11:19:13;13.30;88.30
20833;DHT22;56075;51.264;7.150;2023-04-06T11:21:48;13.40;87.80
20833;DHT22;56075;51.264;7.150;2023-04-06T11:24:21;13.20;87.20
20833;DHT22;56075;51.264;7.150;2023-04-06T11:26:59;13.20;87.90
20833;DHT22;56075;51.264;7.150;2023-04-06T11:29:31;13.40;87.20
20833;DHT22;56075;51.264;7.150;2023-04-06T11:32:05;13.30;87.00
20833;DHT22;56075;51.264;7.150;2023-04-06T11:34:39;13.50;86.50
20833;DHT22;56075;51.264;7.150;2023-04-06T11:37:12;14.00;86.50
20833;DHT22;56075;51.264;7.150;2023-04-06T11:39:50;13.50;85.80
20833;DHT22;56075;51.264;7.150;2023-04-06T11:42:29;13.70;85.20
20833;DHT22;56075;51.264;7.150;2023-04-06T11:45:00;13.80;84.80
20833;DHT22;56075;51.264;7.150;2023-04-06T11:47:36;14.00;85.10
20833;DHT22;56075;51.264;7.150;2023-04-06T11:50:10;14.20;84.90
20833;DHT22;56075;51.264;7.150;2023-04-06T11:52:42;13.90;84.30
20833;DHT22;56075;51.264;7.150;2023-04-06T11:55:18;13.90;84.60
20833;DHT22;56075;51.264;7.150;2023-04-06T11:57:49;13.80;85.10
20833;DHT22;56075;51.264;7.150;2023-04-06T12:00:22;14.10;84.90
20833;DHT22;56075;51.264;7.150;2023-04-06T12:02:53;14.80;84.80
20833;DHT22;56075;51.264;7.150;2023-04-06T12:05:25;14.20;84.40
20833;DHT22;56075;51.264;7.150;2023-04-06T12:07:56;14.20;84.10
20833;DHT22;56075;51.264;7.150;2023-04-06T12:10:28;14.00;83.80
20833;DHT22;56075;51.264;7.150;2023-04-06T12:13:00;14.00;83.70
20833;DHT22;56075;51.264;7.150;2023-04-06T12:15:31;14.20;83.60
20833;DHT22;56075;51.264;7.150;2023-04-06T12:18:03;14.20;83.50
20833;DHT22;56075;51.264;7.150;2023-04-06T12:20:34;14.10;83.40
20833;DHT22;56075;51.264;7.150;2023-04-06T12:23:06;14.20;82.90
20833;DHT22;56075;51.264;7.150;2023-04-06T12:25:39;14.00;83.00
20833;DHT22;56075;51.264;7.150;2023-04-06T12:28:10;13.80;83.30
20833;DHT22;56075;51.264;7.150;2023-04-06T12:30:42;13.70;83.30
20833;DHT22;56075;51.264;7.150;2023-04-06T12:33:13;13.80;83.70
20833;DHT22;56075;51.264;7.150;2023-04-06T12:35:44;13.60;83.90
20833;DHT22;56075;51.264;7.150;2023-04-06T12:38:16;13.90;84.20
20833;DHT22;56075;51.264;7.150;2023-04-06T12:40:47;13.60;84.70
20833;DHT22;56075;51.264;7.150;2023-04-06T12:43:19;14.10;84.90
20833;DHT22;56075;51.264;7.150;2023-04-06T12:45:50;13.60;84.80
20833;DHT22;56075;51.264;7.150;2023-04-06T12:48:21;13.40;84.80
20833;DHT22;56075;51.264;7.150;2023-04-06T12:51:01;13.60;85.10
20833;DHT22;56075;51.264;7.150;2023-04-06T12:53:33;13.80;85.40
20833;DHT22;56075;51.264;7.150;2023-04-06T12:56:15;13.60;85.20
20833;DHT22;56075;51.264;7.150;2023-04-06T12:58:48;13.60;85.50
20833;DHT22;56075;51.264;7.150;2023-04-06T13:01:19;13.60;85.40
20833;DHT22;56075;51.264;7.150;2023-04-06T13:03:51;13.80;85.50
20833;DHT22;56075;51.264;7.150;2023-04-06T13:06:22;13.60;85.10
20833;DHT22;56075;51.264;7.150;2023-04-06T13:08:54;13.70;85.10
20833;DHT22;56075;51.264;7.150;2023-04-06T13:11:26;13.50;85.50
20833;DHT22;56075;51.264;7.150;2023-04-06T13:13:57;13.50;85.90
20833;DHT22;56075;51.264;7.150;2023-04-06T13:16:28;14.50;86.30
20833;DHT22;56075;51.264;7.150;2023-04-06T13:19:00;13.50;85.80
20833;DHT22;56075;51.264;7.150;2023-04-06T13:21:32;13.40;86.10
20833;DHT22;56075;51.264;7.150;2023-04-06T13:24:04;13.30;86.40
20833;DHT22;56075;51.264;7.150;2023-04-06T13:26:36;13.30;86.70
20833;DHT22;56075;51.264;7.150;2023-04-06T13:29:08;13.30;86.70
20833;DHT22;56075;51.264;7.150;2023-04-06T13:31:39;13.40;86.80
20833;DHT22;56075;51.264;7.150;2023-04-06T13:34:10;13.60;87.10
20833;DHT22;56075;51.264;7.150;2023-04-06T13:36:41;13.50;87.20
20833;DHT22;56075;51.264;7.150;2023-04-06T13:39:13;13.50;87.50
20833;DHT22;56075;51.264;7.150;2023-04-06T13:41:45;13.40;87.70
20833;DHT22;56075;51.264;7.150;2023-04-06T13:44:16;13.10;87.80
20833;DHT22;56075;51.264;7.150;2023-04-06T13:46:47;13.20;88.30
20833;DHT22;56075;51.264;7.150;2023-04-06T13:49:18;13.20;88.50
20833;DHT22;56075;51.264;7.150;2023-04-06T13:51:50;13.10;88.50
20833;DHT22;56075;51.264;7.150;2023-04-06T13:54:22;13.00;89.00
20833;DHT22;56075;51.264;7.150;2023-04-06T13:56:54;12.90;88.70
20833;DHT22;56075;51.264;7.150;2023-04-06T13:59:32;12.90;89.20
20833;DHT22;56075;51.264;7.150;2023-04-06T14:02:04;13.40;89.80
20833;DHT22;56075;51.264;7.150;2023-04-06T14:04:36;13.10;89.80
20833;DHT22;56075;51.264;7.150;2023-04-06T14:07:08;13.00;89.70
20833;DHT22;56075;51.264;7.150;2023-04-06T14:09:39;12.70;90.10
20833;DHT22;56075;51.264;7.150;2023-04-06T14:12:11;12.70;90.60
20833;DHT22;56075;51.264;7.150;2023-04-06T14:14:42;12.70;90.50
20833;DHT22;56075;51.264;7.150;2023-04-06T14:17:14;12.60;90.60
20833;DHT22;56075;51.264;7.150;2023-04-06T14:19:45;12.40;90.80
20833;DHT22;56075;51.264;7.150;2023-04-06T14:22:17;12.50;91.00
20833;DHT22;56075;51.264;7.150;2023-04-06T14:24:49;12.40;91.30
20833;DHT22;56075;51.264;7.150;2023-04-06T14:27:21;12.20;91.40
20833;DHT22;56075;51.264;7.150;2023-04-06T14:29:54;12.00;91.80
20833;DHT22;56075;51.264;7.150;2023-04-06T14:32:25;11.80;92.00
20833;DHT22;56075;51.264;7.150;2023-04-06T14:34:56;11.80;92.30
20833;DHT22;56075;51.264;7.150;2023-04-06T14:37:27;11.90;92.50
20833;DHT22;56075;51.264;7.150;2023-04-06T14:39:59;11.90;92.60
20833;DHT22;56075;51.264;7.150;2023-04-06T14:42:30;13.40;93.30
20833;DHT22;56075;51.264;7.150;2023-04-06T14:45:02;11.70;93.20
20833;DHT22;56075;51.264;7.150;2023-04-06T14:47:34;11.70;93.40
20833;DHT22;56075;51.264;7.150;2023-04-06T14:50:05;11.50;93.70
20833;DHT22;56075;51.264;7.150;2023-04-06T14:52:37;11.40;93.90
20833;DHT22;56075;51.264;7.150;2023-04-06T14:55:08;11.40;94.10
20833;DHT22;56075;51.264;7.150;2023-04-06T14:57:39;11.40;94.20
20833;DHT22;56075;51.264;7.150;2023-04-06T15:00:11;11.20;94.30
20833;DHT22;56075;51.264;7.150;2023-04-06T15:02:43;11.30;94.30
20833;DHT22;56075;51.264;7.150;2023-04-06T15:05:14;11.40;94.40
20833;DHT22;56075;51.264;7.150;2023-04-06T15:07:47;11.40;94.50
20833;DHT22;56075;51.264;7.150;2023-04-06T15:10:19;11.60;94.50
20833;DHT22;56075;51.264;7.150;2023-04-06T15:12:50;11.60;94.40
20833;DHT22;56075;51.264;7.150;2023-04-06T15:15:21;11.30;94.50
20833;DHT22;56075;51.264;7.150;2023-04-06T15:17:52;11.40;94.60
20833;DHT22;56075;51.264;7.150;2023-04-06T15:20:24;11.40;94.70
20833;DHT22;56075;51.264;7.150;2023-04-06T15:22:56;11.40;94.80
20833;DHT22;56075;51.264;7.150;2023-04-06T15:25:27;11.40;94.80
20833;DHT22;56075;51.264;7.150;2023-04-06T15:27:58;11.20;94.80
20833;DHT22;56075;51.264;7.150;2023-04-06T15:30:30;11.20;95.00
20833;DHT22;56075;51.264;7.150;2023-04-06T15:33:04;11.30;95.10
20833;DHT22;56075;51.264;7.150;2023-04-06T15:35:36;11.10;96.50
20833;DHT22;56075;51.264;7.150;2023-04-06T15:38:10;11.00;95.70
20833;DHT22;56075;51.264;7.150;2023-04-06T15:40:46;10.60;96.90
20833;DHT22;56075;51.264;7.150;2023-04-06T15:43:18;10.70;96.40
20833;DHT22;56075;51.264;7.150;2023-04-06T15:45:49;10.40;96.70
20833;DHT22;56075;51.264;7.150;2023-04-06T15:48:20;10.40;98.10
20833;DHT22;56075;51.264;7.150;2023-04-06T15:50:56;10.30;97.50
20833;DHT22;56075;51.264;7.150;2023-04-06T15:53:28;10.00;99.20
20833;DHT22;56075;51.264;7.150;2023-04-06T15:56:01;9.80;99.90
20833;DHT22;56075;51.264;7.150;2023-04-06T15:58:32;9.70;99.90
20833;DHT22;56075;51.264;7.150;2023-04-06T16:01:14;9.20;99.90
20833;DHT22;56075;51.264;7.150;2023-04-06T16:06:17;9.40;99.90
20833;DHT22;56075;51.264;7.150;2023-04-06T16:13:52;9.10;99.90
20833;DHT22;56075;51.264;7.150;2023-04-06T16:18:54;8.90;99.90
20833;DHT22;56075;51.264;7.150;2023-04-06T16:21:25;8.90;99.90
20833;DHT22;56075;51.264;7.150;2023-04-06T16:23:57;8.50;99.90
20833;DHT22;56075;51.264;7.150;2023-04-06T16:26:29;8.30;99.90
20833;DHT22;56075;51.264;7.150;2023-04-06T16:34:04;8.40;99.90
20833;DHT22;56075;51.264;7.150;2023-04-06T16:39:10;8.20;99.90
20833;DHT22;56075;51.264;7.150;2023-04-06T16:44:13;8.30;99.90
20833;DHT22;56075;51.264;7.150;2023-04-06T16:46:44;7.70;99.90
20833;DHT22;56075;51.264;7.150;2023-04-06T16:54:21;8.00;99.90
20833;DHT22;56075;51.264;7.150;2023-04-06T17:12:09;7.50;99.90
20833;DHT22;56075;51.264;7.150;2023-04-06T17:14:41;7.70;99.90
20833;DHT22;56075;51.264;7.150;2023-04-06T17:17:13;7.70;99.90
20833;DHT22;56075;51.264;7.150;2023-04-06T17:27:21;7.50;99.90
20833;DHT22;56075;51.264;7.150;2023-04-06T17:40:01;7.50;99.90
20833;DHT22;56075;51.264;7.150;2023-04-06T17:42:32;7.60;99.90
20833;DHT22;56075;51.264;7.150;2023-04-06T17:47:37;7.70;99.90
20833;DHT22;56075;51.264;7.150;2023-04-06T17:50:09;7.40;99.90
20833;DHT22;56075;51.264;7.150;2023-04-06T17:55:12;7.50;99.90
20833;DHT22;56075;51.264;7.150;2023-04-06T18:02:49;7.20;99.90
20833;DHT22;56075;51.264;7.150;2023-04-06T18:10:30;7.10;99.90
20833;DHT22;56075;51.264;7.150;2023-04-06T18:15:34;7.50;99.90
20833;DHT22;56075;51.264;7.150;2023-04-06T18:18:06;7.60;99.90
20833;DHT22;56075;51.264;7.150;2023-04-06T18:20:40;7.50;99.90
20833;DHT22;56075;51.264;7.150;2023-04-06T18:28:18;7.50;99.90
20833;DHT22;56075;51.264;7.150;2023-04-06T18:33:21;7.50;99.90
20833;DHT22;56075;51.264;7.150;2023-04-06T18:38:26;7.40;99.90
20833;DHT22;56075;51.264;7.150;2023-04-06T18:48:32;7.30;99.90
20833;DHT22;56075;51.264;7.150;2023-04-06T18:58:45;7.60;99.90
20833;DHT22;56075;51.264;7.150;2023-04-06T19:03:57;7.10;99.90
20833;DHT22;56075;51.264;7.150;2023-04-06T22:03:42;7.40;99.90
20833;DHT22;56075;51.264;7.150;2023-04-06T22:08:45;7.40;99.90
20833;DHT22;56075;51.264;7.150;2023-04-06T22:16:20;7.10;99.90
20833;DHT22;56075;51.264;7.150;2023-04-06T22:18:52;7.20;99.90
20833;DHT22;56075;51.264;7.150;2023-04-06T22:23:56;7.40;99.90
20833;DHT22;56075;51.264;7.150;2023-04-06T22:26:27;7.50;99.90
20833;DHT22;56075;51.264;7.150;2023-04-06T22:28:58;7.40;99.90
20833;DHT22;56075;51.264;7.150;2023-04-06T22:34:01;7.30;99.90
20833;DHT22;56075;51.264;7.150;2023-04-06T22:41:35;7.40;99.90
20833;DHT22;56075;51.264;7.150;2023-04-06T22:46:38;7.50;99.90
20833;DHT22;56075;51.264;7.150;2023-04-06T22:51:40;7.50;99.90
20833;DHT22;56075;51.264;7.150;2023-04-06T22:54:11;7.30;99.90
20833;DHT22;56075;51.264;7.150;2023-04-06T22:56:44;7.60;99.90
20833;DHT22;56075;51.264;7.150;2023-04-06T23:04:18;7.70;99.90
